Time,TemperatureF,DewpointF,PressureIn,WindDirection,WindDirectionDegrees,WindSpeedMPH,WindSpeedGustMPH,Humidity,HourlyPrecipIn,Conditions,Clouds,dailyrainin,SoftwareType,DateUTC
2013-04-20 00:05:00,33.1,21.9,30.12,North,5,3.0,4.0,63,0.00,,,0.00,Wunderground v.1.15,2013-04-20 05:05:00,
2013-04-20 00:15:00,32.8,21.6,30.13,North,5,3.0,3.0,63,0.00,,,0.00,Wunderground v.1.15,2013-04-20 05:15:00,
2013-04-20 00:25:00,32.6,21.8,30.13,North,5,1.0,2.0,64,0.00,,,0.00,Wunderground v.1.15,2013-04-20 05:25:00,
2013-04-20 00:35:00,32.3,21.5,30.13,North,5,1.0,1.0,64,0.00,,,0.00,Wunderground v.1.15,2013-04-20 05:35:00,
2013-04-20 00:45:00,32.0,23.0,30.14,North,5,1.0,1.0,69,0.00,,,0.00,Wunderground v.1.15,2013-04-20 05:45:00,
2013-04-20 00:55:00,31.7,21.6,30.14,North,5,3.0,4.0,66,0.00,,,0.00,Wunderground v.1.15,2013-04-20 05:55:00,
2013-04-20 01:05:00,31.5,21.8,30.14,North,5,3.0,4.0,67,0.00,,,0.00,Wunderground v.1.15,2013-04-20 06:05:00,
2013-04-20 01:15:00,31.4,21.7,30.14,North,5,2.0,2.0,67,0.00,,,0.00,Wunderground v.1.15,2013-04-20 06:15:00,
2013-04-20 01:25:00,31.2,21.5,30.14,North,5,0.0,1.0,67,0.00,,,0.00,Wunderground v.1.15,2013-04-20 06:25:00,
2013-04-20 01:35:00,31.0,21.3,30.14,North,5,1.0,2.0,67,0.00,,,0.00,Wunderground v.1.15,2013-04-20 06:35:00,
2013-04-20 01:40:00,30.9,21.2,30.14,North,5,1.0,1.0,67,0.00,,,0.00,Wunderground v.1.15,2013-04-20 06:40:00,
2013-04-20 01:50:00,30.6,21.3,30.14,North,5,1.0,1.0,68,0.00,,,0.00,Wunderground v.1.15,2013-04-20 06:50:00,
2013-04-20 02:00:00,30.3,21.0,30.14,North,5,1.0,1.0,68,0.00,,,0.00,Wunderground v.1.15,2013-04-20 07:00:00,
2013-04-20 02:05:00,30.2,21.2,30.15,North,5,1.0,1.0,69,0.00,,,0.00,Wunderground v.1.15,2013-04-20 07:05:00,
2013-04-20 02:15:00,30.0,21.1,30.15,North,5,1.0,2.0,69,0.00,,,0.00,Wunderground v.1.15,2013-04-20 07:15:00,
2013-04-20 02:25:00,29.8,21.2,30.15,North,5,2.0,2.0,70,0.00,,,0.00,Wunderground v.1.15,2013-04-20 07:25:00,
2013-04-20 02:35:00,29.6,21.0,30.15,North,5,1.0,1.0,70,0.00,,,0.00,Wunderground v.1.15,2013-04-20 07:35:00,
2013-04-20 02:40:00,29.5,20.9,30.16,North,5,1.0,1.0,70,0.00,,,0.00,Wunderground v.1.15,2013-04-20 07:40:00,
2013-04-20 02:50:00,29.3,21.1,30.15,North,5,1.0,4.0,71,0.00,,,0.00,Wunderground v.1.15,2013-04-20 07:50:00,
2013-04-20 03:00:00,29.1,20.9,30.15,North,5,3.0,4.0,71,0.00,,,0.00,Wunderground v.1.15,2013-04-20 08:00:00,
2013-04-20 03:05:00,29.0,21.1,30.15,NNW,348,4.0,4.0,72,0.00,,,0.00,Wunderground v.1.15,2013-04-20 08:05:00,
2013-04-20 03:15:00,29.0,21.1,30.16,North,355,3.0,4.0,72,0.00,,,0.00,Wunderground v.1.15,2013-04-20 08:15:00,
2013-04-20 03:25:00,29.0,21.1,30.16,North,5,2.0,3.0,72,0.00,,,0.00,Wunderground v.1.15,2013-04-20 08:25:00,
2013-04-20 03:30:00,29.0,21.1,30.16,North,5,2.0,2.0,72,0.00,,,0.00,Wunderground v.1.15,2013-04-20 08:30:00,
2013-04-20 03:40:00,28.9,21.3,30.16,North,5,2.0,2.0,73,0.00,,,0.00,Wunderground v.1.15,2013-04-20 08:40:00,
2013-04-20 03:50:00,28.9,21.3,30.16,North,5,3.0,4.0,73,0.00,,,0.00,Wunderground v.1.15,2013-04-20 08:50:00,
2013-04-20 04:00:00,28.9,21.3,30.16,North,9,3.0,4.0,73,0.00,,,0.00,Wunderground v.1.15,2013-04-20 09:00:00,
2013-04-20 04:05:00,28.9,21.3,30.17,North,5,3.0,4.0,73,0.00,,,0.00,Wunderground v.1.15,2013-04-20 09:05:00,
2013-04-20 04:15:00,28.8,21.2,30.17,NNE,12,3.0,4.0,73,0.00,,,0.00,Wunderground v.1.15,2013-04-20 09:15:00,
2013-04-20 04:25:00,28.8,21.2,30.17,NNE,15,3.0,5.0,73,0.00,,,0.00,Wunderground v.1.15,2013-04-20 09:25:00,
2013-04-20 04:35:00,28.7,21.1,30.18,NNE,15,2.0,3.0,73,0.00,,,0.00,Wunderground v.1.15,2013-04-20 09:35:00,
2013-04-20 04:40:00,28.5,20.9,30.18,NNE,15,2.0,2.0,73,0.00,,,0.00,Wunderground v.1.15,2013-04-20 09:40:00,
2013-04-20 04:50:00,28.4,20.8,30.18,NNE,15,1.0,3.0,73,0.00,,,0.00,Wunderground v.1.15,2013-04-20 09:50:00,
2013-04-20 05:00:00,28.1,20.9,30.18,NNE,15,1.0,2.0,74,0.00,,,0.00,Wunderground v.1.15,2013-04-20 10:00:00,
2013-04-20 05:05:00,28.0,20.8,30.18,NNE,15,1.0,2.0,74,0.00,,,0.00,Wunderground v.1.15,2013-04-20 10:05:00,
2013-04-20 05:15:00,27.8,20.6,30.19,NNE,15,2.0,2.0,74,0.00,,,0.00,Wunderground v.1.15,2013-04-20 10:15:00,
2013-04-20 05:20:00,27.6,20.7,30.19,NNE,20,3.0,4.0,75,0.00,,,0.00,Wunderground v.1.15,2013-04-20 10:20:00,
2013-04-20 05:25:00,27.5,20.6,30.19,NNE,26,4.0,4.0,75,0.00,,,0.00,Wunderground v.1.15,2013-04-20 10:25:00,
2013-04-20 05:30:00,27.4,20.8,30.19,NNE,26,3.0,3.0,76,0.00,,,0.00,Wunderground v.1.15,2013-04-20 10:30:00,
2013-04-20 05:40:00,27.3,20.7,30.19,NNE,27,3.0,4.0,76,0.00,,,0.00,Wunderground v.1.15,2013-04-20 10:40:00,
2013-04-20 05:50:00,27.2,20.6,30.19,NNE,27,2.0,2.0,76,0.00,,,0.00,Wunderground v.1.15,2013-04-20 10:50:00,
2013-04-20 06:00:00,27.1,20.8,30.19,NNE,27,2.0,2.0,77,0.00,,,0.00,Wunderground v.1.15,2013-04-20 11:00:00,
2013-04-20 06:05:00,27.0,20.7,30.19,NNE,27,2.0,2.0,77,0.00,,,0.00,Wunderground v.1.15,2013-04-20 11:05:00,
2013-04-20 06:15:00,26.8,20.6,30.19,NNE,27,2.0,3.0,77,0.00,,,0.00,Wunderground v.1.15,2013-04-20 11:15:00,
2013-04-20 06:20:00,26.7,20.5,30.20,NNE,27,3.0,4.0,77,0.00,,,0.00,Wunderground v.1.15,2013-04-20 11:20:00,
2013-04-20 06:30:00,26.6,20.4,30.20,NNE,28,3.0,3.0,77,0.00,,,0.00,Wunderground v.1.15,2013-04-20 11:30:00,
2013-04-20 06:40:00,26.5,20.6,30.21,NNE,28,2.0,2.0,78,0.00,,,0.00,Wunderground v.1.15,2013-04-20 11:40:00,
2013-04-20 06:50:00,26.4,20.5,30.22,NNE,28,0.0,0.0,78,0.00,,,0.00,Wunderground v.1.15,2013-04-20 11:50:00,
2013-04-20 07:00:00,26.3,20.7,30.22,NNE,28,0.0,1.0,79,0.00,,,0.00,Wunderground v.1.15,2013-04-20 12:00:00,
2013-04-20 07:05:00,26.3,20.7,30.22,NNE,28,0.0,1.0,79,0.00,,,0.00,Wunderground v.1.15,2013-04-20 12:05:00,
2013-04-20 07:10:00,26.4,20.8,30.22,NNE,28,0.0,0.0,79,0.00,,,0.00,Wunderground v.1.15,2013-04-20 12:10:00,
2013-04-20 07:20:00,26.7,21.4,30.22,NNE,28,2.0,2.0,80,0.00,,,0.00,Wunderground v.1.15,2013-04-20 12:20:00,
2013-04-20 07:25:00,27.0,21.7,30.22,NNE,28,3.0,3.0,80,0.00,,,0.00,Wunderground v.1.15,2013-04-20 12:25:00,
2013-04-20 07:35:00,27.9,22.8,30.22,NNE,26,3.0,3.0,81,0.00,,,0.00,Wunderground v.1.15,2013-04-20 12:35:00,
2013-04-20 07:45:00,28.8,23.7,30.24,ENE,61,3.0,3.0,81,0.00,,,0.00,Wunderground v.1.15,2013-04-20 12:45:00,
2013-04-20 07:55:00,29.3,23.9,30.24,ENE,61,2.0,3.0,80,0.00,,,0.00,Wunderground v.1.15,2013-04-20 12:55:00,
2013-04-20 08:05:00,29.8,24.1,30.25,ENE,61,1.0,2.0,79,0.00,,,0.00,Wunderground v.1.15,2013-04-20 13:05:00,
2013-04-20 08:15:00,31.1,25.0,30.25,ENE,63,2.0,4.0,78,0.00,,,0.00,Wunderground v.1.15,2013-04-20 13:15:00,
2013-04-20 08:25:00,32.3,24.9,30.25,ENE,69,3.0,4.0,74,0.00,,,0.00,Wunderground v.1.15,2013-04-20 13:25:00,
2013-04-20 08:30:00,32.4,24.4,30.25,ENE,69,3.0,4.0,72,0.00,,,0.00,Wunderground v.1.15,2013-04-20 13:30:00,
2013-04-20 08:40:00,32.8,24.4,30.25,ENE,71,4.0,4.0,71,0.00,,,0.00,Wunderground v.1.15,2013-04-20 13:40:00,
2013-04-20 08:45:00,33.0,24.6,30.25,ENE,67,4.0,7.0,71,0.00,,,0.00,Wunderground v.1.15,2013-04-20 13:45:00,
2013-04-20 08:50:00,33.6,24.9,30.25,East,85,6.0,8.0,70,0.00,,,0.00,Wunderground v.1.15,2013-04-20 13:50:00,
2013-04-20 08:55:00,33.7,24.3,30.25,NE,36,6.0,8.0,68,0.00,,,0.00,Wunderground v.1.15,2013-04-20 13:55:00,
2013-04-20 09:05:00,33.5,23.7,30.25,ENE,76,5.0,9.0,67,0.00,,,0.00,Wunderground v.1.15,2013-04-20 14:05:00,
2013-04-20 09:15:00,33.3,23.2,30.26,ENE,76,5.0,6.0,66,0.00,,,0.00,Wunderground v.1.15,2013-04-20 14:15:00,
2013-04-20 09:20:00,33.2,23.1,30.26,ENE,77,4.0,4.0,66,0.00,,,0.00,Wunderground v.1.15,2013-04-20 14:20:00,
2013-04-20 09:25:00,33.3,23.2,30.26,East,80,5.0,5.0,66,0.00,,,0.00,Wunderground v.1.15,2013-04-20 14:25:00,
2013-04-20 09:35:00,33.1,22.6,30.27,East,81,5.0,6.0,65,0.00,,,0.00,Wunderground v.1.15,2013-04-20 14:35:00,
2013-04-20 09:45:00,32.9,22.8,30.27,East,85,3.0,6.0,66,0.00,,,0.00,Wunderground v.1.15,2013-04-20 14:45:00,
2013-04-20 09:55:00,32.9,22.4,30.28,East,100,4.0,4.0,65,0.00,,,0.00,Wunderground v.1.15,2013-04-20 14:55:00,
2013-04-20 10:05:00,33.3,22.4,30.28,East,98,3.0,5.0,64,0.00,,,0.00,Wunderground v.1.15,2013-04-20 15:05:00,
2013-04-20 10:15:00,33.6,22.3,30.27,ESE,112,3.0,3.0,63,0.00,,,0.00,Wunderground v.1.15,2013-04-20 15:15:00,
2013-04-20 10:20:00,33.8,22.1,30.27,ESE,107,4.0,4.0,62,0.00,,,0.00,Wunderground v.1.15,2013-04-20 15:20:00,
2013-04-20 10:30:00,34.4,22.7,30.27,ESE,116,4.0,4.0,62,0.00,,,0.00,Wunderground v.1.15,2013-04-20 15:30:00,
2013-04-20 10:40:00,35.2,23.9,30.28,East,81,4.0,6.0,63,0.00,,,0.00,Wunderground v.1.15,2013-04-20 15:40:00,
2013-04-20 10:50:00,35.7,23.6,30.28,SE,136,5.0,6.0,61,0.00,,,0.00,Wunderground v.1.15,2013-04-20 15:50:00,
2013-04-20 11:00:00,35.5,22.2,30.28,SE,132,5.0,5.0,58,0.00,,,0.00,Wunderground v.1.15,2013-04-20 16:00:00,
2013-04-20 11:05:00,35.9,23.4,30.28,East,80,6.0,6.0,60,0.00,,,0.00,Wunderground v.1.15,2013-04-20 16:05:00,
2013-04-20 11:15:00,35.8,22.9,30.29,SE,139,5.0,5.0,59,0.00,,,0.00,Wunderground v.1.15,2013-04-20 16:15:00,
2013-04-20 11:20:00,35.9,23.4,30.28,East,99,5.0,7.0,60,0.00,,,0.00,Wunderground v.1.15,2013-04-20 16:20:00,
2013-04-20 11:30:00,36.6,24.0,30.29,East,92,4.0,8.0,60,0.00,,,0.00,Wunderground v.1.15,2013-04-20 16:30:00,
2013-04-20 11:40:00,37.3,23.4,30.29,East,96,5.0,5.0,57,0.00,,,0.00,Wunderground v.1.15,2013-04-20 16:40:00,
2013-04-20 11:45:00,37.4,23.5,30.28,SE,141,4.0,5.0,57,0.00,,,0.00,Wunderground v.1.15,2013-04-20 16:45:00,
2013-04-20 11:55:00,38.4,24.5,30.28,ESE,110,4.0,5.0,57,0.00,,,0.00,Wunderground v.1.15,2013-04-20 16:55:00,
2013-04-20 12:05:00,39.7,25.3,30.28,SE,128,3.0,5.0,56,0.00,,,0.00,Wunderground v.1.15,2013-04-20 17:05:00,
2013-04-20 12:15:00,40.1,23.4,30.27,East,93,4.0,4.0,51,0.00,,,0.00,Wunderground v.1.15,2013-04-20 17:15:00,
2013-04-20 12:25:00,40.2,23.5,30.26,ESE,120,6.0,8.0,51,0.00,,,0.00,Wunderground v.1.15,2013-04-20 17:25:00,
2013-04-20 12:30:00,40.2,24.0,30.26,East,100,7.0,7.0,52,0.00,,,0.00,Wunderground v.1.15,2013-04-20 17:30:00,
2013-04-20 12:40:00,40.7,24.0,30.26,ESE,102,5.0,5.0,51,0.00,,,0.00,Wunderground v.1.15,2013-04-20 17:40:00,
2013-04-20 12:45:00,41.2,25.8,30.25,ENE,78,6.0,8.0,54,0.00,,,0.00,Wunderground v.1.15,2013-04-20 17:45:00,
2013-04-20 12:55:00,41.1,24.3,30.25,ESE,105,7.0,7.0,51,0.00,,,0.00,Wunderground v.1.15,2013-04-20 17:55:00,
2013-04-20 13:05:00,42.2,25.8,30.26,SE,131,5.0,7.0,52,0.00,,,0.00,Wunderground v.1.15,2013-04-20 18:05:00,
2013-04-20 13:15:00,42.2,24.9,30.25,ESE,115,5.0,5.0,50,0.00,,,0.00,Wunderground v.1.15,2013-04-20 18:15:00,
2013-04-20 13:25:00,41.7,23.4,30.24,East,100,7.0,8.0,48,0.00,,,0.00,Wunderground v.1.15,2013-04-20 18:25:00,
2013-04-20 13:35:00,41.5,22.2,30.23,ESE,119,7.0,10.0,46,0.00,,,0.00,Wunderground v.1.15,2013-04-20 18:35:00,
2013-04-20 13:50:00,41.7,23.4,30.23,East,97,6.0,6.0,48,0.00,,,0.00,Wunderground v.1.15,2013-04-20 18:50:00,
2013-04-20 13:55:00,42.0,23.7,30.23,East,96,6.0,7.0,48,0.00,,,0.00,Wunderground v.1.15,2013-04-20 18:55:00,
2013-04-20 14:05:00,42.0,23.7,30.23,ESE,105,6.0,6.0,48,0.00,,,0.00,Wunderground v.1.15,2013-04-20 19:05:00,
2013-04-20 14:15:00,43.1,24.2,30.23,East,85,5.0,6.0,47,0.00,,,0.00,Wunderground v.1.15,2013-04-20 19:15:00,
2013-04-20 14:20:00,43.7,23.7,30.23,SSE,157,6.0,9.0,45,0.00,,,0.00,Wunderground v.1.15,2013-04-20 19:20:00,
2013-04-20 14:30:00,43.5,23.0,30.22,ESE,121,7.0,11.0,44,0.00,,,0.00,Wunderground v.1.15,2013-04-20 19:30:00,
2013-04-20 14:40:00,44.0,24.0,30.22,ESE,108,7.0,7.0,45,0.00,,,0.00,Wunderground v.1.15,2013-04-20 19:40:00,
2013-04-20 14:45:00,44.0,24.5,30.22,ESE,109,7.0,7.0,46,0.00,,,0.00,Wunderground v.1.15,2013-04-20 19:45:00,
2013-04-20 14:55:00,44.3,24.3,30.22,SE,138,8.0,8.0,45,0.00,,,0.00,Wunderground v.1.15,2013-04-20 19:55:00,
2013-04-20 15:05:00,44.2,24.2,30.21,SE,126,9.0,10.0,45,0.00,,,0.00,Wunderground v.1.15,2013-04-20 20:05:00,
2013-04-20 15:15:00,45.2,26.1,30.20,ESE,102,7.0,8.0,47,0.00,,,0.00,Wunderground v.1.15,2013-04-20 20:15:00,
2013-04-20 15:25:00,46.2,24.9,30.20,SE,126,6.0,6.0,43,0.00,,,0.00,Wunderground v.1.15,2013-04-20 20:25:00,
2013-04-20 15:35:00,45.6,24.4,30.20,ESE,115,8.0,8.0,43,0.00,,,0.00,Wunderground v.1.15,2013-04-20 20:35:00,
2013-04-20 15:45:00,46.1,25.9,30.20,ESE,119,8.0,8.0,45,0.00,,,0.00,Wunderground v.1.15,2013-04-20 20:45:00,
2013-04-20 15:55:00,46.2,25.5,30.20,East,98,7.0,7.0,44,0.00,,,0.00,Wunderground v.1.15,2013-04-20 20:55:00,
2013-04-20 16:00:00,46.3,25.0,30.20,ESE,117,8.0,8.0,43,0.00,,,0.00,Wunderground v.1.15,2013-04-20 21:00:00,
2013-04-20 16:05:00,46.3,25.0,30.19,ENE,78,7.0,8.0,43,0.00,,,0.00,Wunderground v.1.15,2013-04-20 21:05:00,
2013-04-20 16:15:00,46.1,25.9,30.19,ESE,122,8.0,8.0,45,0.00,,,0.00,Wunderground v.1.15,2013-04-20 21:15:00,
2013-04-20 16:20:00,46.4,26.2,30.19,SE,130,6.0,7.0,45,0.00,,,0.00,Wunderground v.1.15,2013-04-20 21:20:00,
2013-04-20 16:25:00,46.4,25.6,30.18,East,101,7.0,7.0,44,0.00,,,0.00,Wunderground v.1.15,2013-04-20 21:25:00,
2013-04-20 16:35:00,46.5,25.7,30.19,East,96,7.0,11.0,44,0.00,,,0.00,Wunderground v.1.15,2013-04-20 21:35:00,
2013-04-20 16:40:00,46.5,25.7,30.18,East,84,8.0,9.0,44,0.00,,,0.00,Wunderground v.1.15,2013-04-20 21:40:00,
2013-04-20 16:50:00,46.6,25.3,30.18,East,92,9.0,9.0,43,0.00,,,0.00,Wunderground v.1.15,2013-04-20 21:50:00,
2013-04-20 17:00:00,46.4,26.2,30.18,SE,140,8.0,9.0,45,0.00,,,0.00,Wunderground v.1.15,2013-04-20 22:00:00,
2013-04-20 17:05:00,46.3,24.4,30.18,ESE,122,8.0,9.0,42,0.00,,,0.00,Wunderground v.1.15,2013-04-20 22:05:00,
2013-04-20 17:15:00,46.3,23.9,30.18,SE,126,9.0,9.0,41,0.00,,,0.00,Wunderground v.1.15,2013-04-20 22:15:00,
2013-04-20 17:25:00,46.5,24.6,30.18,SE,132,8.0,9.0,42,0.00,,,0.00,Wunderground v.1.15,2013-04-20 22:25:00,
2013-04-20 17:35:00,46.5,24.0,30.18,SE,129,8.0,10.0,41,0.00,,,0.00,Wunderground v.1.15,2013-04-20 22:35:00,
2013-04-20 17:40:00,46.5,25.2,30.18,East,95,7.0,10.0,43,0.00,,,0.00,Wunderground v.1.15,2013-04-20 22:40:00,
2013-04-20 17:50:00,46.5,25.7,30.17,ESE,109,7.0,8.0,44,0.00,,,0.00,Wunderground v.1.15,2013-04-20 22:50:00,
2013-04-20 18:00:00,46.3,25.0,30.17,ESE,112,9.0,9.0,43,0.00,,,0.00,Wunderground v.1.15,2013-04-20 23:00:00,
2013-04-20 18:05:00,46.2,24.9,30.17,ESE,107,9.0,9.0,43,0.00,,,0.00,Wunderground v.1.15,2013-04-20 23:05:00,
2013-04-20 18:15:00,46.3,25.6,30.17,ESE,121,7.0,11.0,44,0.00,,,0.00,Wunderground v.1.15,2013-04-20 23:15:00,
2013-04-20 18:25:00,46.1,24.8,30.17,SE,138,9.0,9.0,43,0.00,,,0.00,Wunderground v.1.15,2013-04-20 23:25:00,
2013-04-20 18:35:00,46.0,25.3,30.17,SE,136,9.0,9.0,44,0.00,,,0.00,Wunderground v.1.15,2013-04-20 23:35:00,
2013-04-20 18:40:00,46.1,25.4,30.18,ESE,105,8.0,8.0,44,0.00,,,0.00,Wunderground v.1.15,2013-04-20 23:40:00,
2013-04-20 18:50:00,46.0,24.7,30.17,SE,142,9.0,11.0,43,0.00,,,0.00,Wunderground v.1.15,2013-04-20 23:50:00,
2013-04-20 19:00:00,45.8,25.1,30.17,ESE,114,9.0,9.0,44,0.00,,,0.00,Wunderground v.1.15,2013-04-21 00:00:00,
2013-04-20 19:05:00,45.7,25.0,30.17,ESE,112,8.0,9.0,44,0.00,,,0.00,Wunderground v.1.15,2013-04-21 00:05:00,
2013-04-20 19:15:00,45.6,24.9,30.17,ESE,103,8.0,10.0,44,0.00,,,0.00,Wunderground v.1.15,2013-04-21 00:15:00,
2013-04-20 19:25:00,45.5,25.9,30.17,East,98,7.0,9.0,46,0.00,,,0.00,Wunderground v.1.15,2013-04-21 00:25:00,
2013-04-20 19:35:00,45.4,26.3,30.16,ESE,123,8.0,9.0,47,0.00,,,0.00,Wunderground v.1.15,2013-04-21 00:35:00,
2013-04-20 19:40:00,45.3,26.7,30.16,East,92,9.0,10.0,48,0.00,,,0.00,Wunderground v.1.15,2013-04-21 00:40:00,
2013-04-20 19:50:00,45.1,26.6,30.16,ESE,103,9.0,9.0,48,0.00,,,0.00,Wunderground v.1.15,2013-04-21 00:50:00,
2013-04-20 20:00:00,44.9,26.4,30.17,ESE,106,7.0,9.0,48,0.00,,,0.00,Wunderground v.1.15,2013-04-21 01:00:00,
2013-04-20 20:05:00,44.7,26.2,30.17,East,80,8.0,9.0,48,0.00,,,0.00,Wunderground v.1.15,2013-04-21 01:05:00,
2013-04-20 20:15:00,44.6,26.1,30.16,ESE,112,9.0,11.0,48,0.00,,,0.00,Wunderground v.1.15,2013-04-21 01:15:00,
2013-04-20 20:25:00,44.5,26.5,30.16,ESE,104,11.0,13.0,49,0.00,,,0.00,Wunderground v.1.15,2013-04-21 01:25:00,
2013-04-20 20:30:00,44.3,26.3,30.16,ENE,58,10.0,12.0,49,0.00,,,0.00,Wunderground v.1.15,2013-04-21 01:30:00,
2013-04-20 20:40:00,44.2,26.2,30.17,ESE,123,9.0,9.0,49,0.00,,,0.00,Wunderground v.1.15,2013-04-21 01:40:00,
2013-04-20 20:50:00,44.2,26.2,30.18,ESE,108,9.0,9.0,49,0.00,,,0.00,Wunderground v.1.15,2013-04-21 01:50:00,
2013-04-20 21:00:00,44.2,26.7,30.18,East,98,7.0,7.0,50,0.00,,,0.00,Wunderground v.1.15,2013-04-21 02:00:00,
2013-04-20 21:05:00,44.2,27.2,30.18,SSE,149,7.0,8.0,51,0.00,,,0.00,Wunderground v.1.15,2013-04-21 02:05:00,
2013-04-20 21:15:00,44.4,26.9,30.19,ESE,102,8.0,8.0,50,0.00,,,0.00,Wunderground v.1.15,2013-04-21 02:15:00,
2013-04-20 21:20:00,44.3,26.8,30.19,ESE,121,6.0,6.0,50,0.00,,,0.00,Wunderground v.1.15,2013-04-21 02:20:00,
2013-04-20 21:25:00,44.2,27.2,30.18,East,91,7.0,9.0,51,0.00,,,0.00,Wunderground v.1.15,2013-04-21 02:25:00,
2013-04-20 21:35:00,44.2,27.2,30.19,SE,129,7.0,7.0,51,0.00,,,0.00,Wunderground v.1.15,2013-04-21 02:35:00,
2013-04-20 21:45:00,44.1,27.6,30.17,ESE,107,10.0,13.0,52,0.00,,,0.00,Wunderground v.1.15,2013-04-21 02:45:00,
2013-04-20 21:55:00,44.0,27.5,30.17,ESE,105,9.0,11.0,52,0.00,,,0.00,Wunderground v.1.15,2013-04-21 02:55:00,
2013-04-20 22:00:00,43.9,27.4,30.18,ESE,103,8.0,8.0,52,0.00,,,0.00,Wunderground v.1.15,2013-04-21 03:00:00,
2013-04-20 22:05:00,44.0,27.5,30.18,SE,127,6.0,8.0,52,0.00,,,0.00,Wunderground v.1.15,2013-04-21 03:05:00,
2013-04-20 22:15:00,44.1,28.0,30.19,ESE,119,8.0,8.0,53,0.00,,,0.00,Wunderground v.1.15,2013-04-21 03:15:00,
2013-04-20 22:25:00,44.2,27.7,30.18,ESE,103,7.0,8.0,52,0.00,,,0.00,Wunderground v.1.15,2013-04-21 03:25:00,
2013-04-20 22:35:00,44.6,28.0,30.19,ESE,119,8.0,13.0,52,0.00,,,0.00,Wunderground v.1.15,2013-04-21 03:35:00,
2013-04-20 22:45:00,45.0,28.4,30.18,SE,126,11.0,11.0,52,0.00,,,0.00,Wunderground v.1.15,2013-04-21 03:45:00,
2013-04-20 22:50:00,44.9,28.3,30.18,ESE,121,11.0,11.0,52,0.00,,,0.00,Wunderground v.1.15,2013-04-21 03:50:00,
2013-04-20 23:00:00,44.8,28.2,30.18,ESE,117,8.0,8.0,52,0.00,,,0.00,Wunderground v.1.15,2013-04-21 04:00:00,
2013-04-20 23:05:00,44.8,28.7,30.19,South,173,7.0,8.0,53,0.00,,,0.00,Wunderground v.1.15,2013-04-21 04:05:00,
2013-04-20 23:10:00,44.7,28.6,30.19,SE,139,6.0,7.0,53,0.00,,,0.00,Wunderground v.1.15,2013-04-21 04:10:00,
2013-04-20 23:15:00,44.7,29.1,30.19,SE,129,8.0,10.0,54,0.00,,,0.00,Wunderground v.1.15,2013-04-21 04:15:00,
2013-04-20 23:25:00,44.3,29.6,30.18,SE,144,8.0,13.0,56,0.00,,,0.00,Wunderground v.1.15,2013-04-21 04:25:00,
2013-04-20 23:35:00,44.0,29.7,30.17,SE,129,9.0,11.0,57,0.00,,,0.00,Wunderground v.1.15,2013-04-21 04:35:00,
2013-04-20 23:40:00,43.8,30.0,30.16,SE,126,10.0,10.0,58,0.00,,,0.00,Wunderground v.1.15,2013-04-21 04:40:00,
2013-04-20 23:50:00,43.8,30.0,30.16,SE,137,12.0,12.0,58,0.00,,,0.00,Wunderground v.1.15,2013-04-21 04:50:00,
2013-04-20 23:55:00,43.9,29.6,30.16,SE,138,11.0,15.0,57,0.00,,,0.00,Wunderground v.1.15,2013-04-21 04:55:00,